createdAt,value
2023-04-02T00:01:51.469Z,58.71
2023-04-02T00:04:17.769Z,58.32
2023-04-02T00:06:44.042Z,58.71
2023-04-02T00:09:10.324Z,58.75
2023-04-02T00:11:36.593Z,58.38
2023-04-02T00:14:02.879Z,59.33
2023-04-02T00:16:29.212Z,58.93
2023-04-02T00:18:55.504Z,59.19
2023-04-02T00:21:21.781Z,58.69
2023-04-02T00:23:48.052Z,58.27
2023-04-02T00:26:14.289Z,58.39
2023-04-02T00:28:40.555Z,57.76
2023-04-02T00:31:06.889Z,58.56
2023-04-02T00:33:33.172Z,58.44
2023-04-02T00:35:59.439Z,59.28
2023-04-02T00:38:25.719Z,58.76
2023-04-02T00:40:51.992Z,59.09
2023-04-02T00:43:18.254Z,59.50
2023-04-02T00:45:44.515Z,58.26
2023-04-02T00:48:10.850Z,58.33
2023-04-02T00:50:37.122Z,58.65
2023-04-02T00:53:03.429Z,58.14
2023-04-02T00:55:29.709Z,58.76
2023-04-02T00:57:55.990Z,58.01
2023-04-02T01:00:22.252Z,58.31
2023-04-02T01:02:48.569Z,58.48
2023-04-02T01:05:14.950Z,58.82
2023-04-02T01:07:41.307Z,58.29
2023-04-02T01:10:07.575Z,59.08
2023-04-02T01:12:33.833Z,59.10
2023-04-02T01:15:00.102Z,58.63
2023-04-02T01:17:26.470Z,59.33
2023-04-02T01:19:52.808Z,59.22
2023-04-02T01:22:19.050Z,58.95
2023-04-02T01:24:45.309Z,59.05
2023-04-02T01:27:11.568Z,59.51
2023-04-02T01:29:37.847Z,59.48
2023-04-02T01:32:04.081Z,59.00
2023-04-02T01:34:30.358Z,59.28
2023-04-02T01:36:56.608Z,59.32
2023-04-02T01:39:22.865Z,59.95
2023-04-02T01:41:49.178Z,59.76
2023-04-02T01:44:15.436Z,59.36
2023-04-02T01:46:41.739Z,59.46
2023-04-02T01:49:08.033Z,59.85
2023-04-02T01:51:34.268Z,59.53
2023-04-02T01:54:00.541Z,60.02
2023-04-02T01:56:26.779Z,60.43
2023-04-02T01:58:53.100Z,60.54
2023-04-02T02:01:19.570Z,60.30
2023-04-02T02:03:46.009Z,59.90
2023-04-02T02:06:12.272Z,60.46
2023-04-02T02:08:38.528Z,60.62
2023-04-02T02:11:04.822Z,60.20
2023-04-02T02:13:31.102Z,60.74
2023-04-02T02:15:57.424Z,60.70
2023-04-02T02:18:23.744Z,60.01
2023-04-02T02:20:50.011Z,60.37
2023-04-02T02:23:16.276Z,60.35
2023-04-02T02:25:42.517Z,60.04
2023-04-02T02:28:08.783Z,60.23
2023-04-02T02:30:35.058Z,60.06
2023-04-02T02:33:01.346Z,60.09
2023-04-02T02:35:27.665Z,60.23
2023-04-02T02:37:53.964Z,60.46
2023-04-02T02:40:20.227Z,60.43
2023-04-02T02:42:46.479Z,60.72
2023-04-02T02:45:12.755Z,60.56
2023-04-02T02:47:39.061Z,60.45
2023-04-02T02:50:05.348Z,60.24
2023-04-02T02:52:31.623Z,60.40
2023-04-02T02:54:57.925Z,60.85
2023-04-02T02:57:24.286Z,60.39
2023-04-02T02:59:50.575Z,60.95
2023-04-02T03:02:16.856Z,60.92
2023-04-02T03:04:43.145Z,60.48
2023-04-02T03:07:09.388Z,60.20
2023-04-02T03:09:35.668Z,60.45
2023-04-02T03:12:01.986Z,59.81
2023-04-02T03:14:28.293Z,60.17
2023-04-02T03:16:54.554Z,60.64
2023-04-02T03:19:20.805Z,61.09
2023-04-02T03:21:47.079Z,60.79
2023-04-02T03:24:13.343Z,61.02
2023-04-02T03:26:39.617Z,60.70
2023-04-02T03:29:05.887Z,60.69
2023-04-02T03:31:32.170Z,61.19
2023-04-02T03:33:58.503Z,60.43
2023-04-02T03:36:24.815Z,60.92
2023-04-02T03:38:51.058Z,60.38
2023-04-02T03:41:17.305Z,60.31
2023-04-02T03:43:43.571Z,60.43
2023-04-02T03:46:09.880Z,61.11
2023-04-02T03:48:36.155Z,60.62
2023-04-02T03:51:02.414Z,60.37
2023-04-02T03:53:28.666Z,60.88
2023-04-02T03:55:54.949Z,61.16
2023-04-02T03:58:21.240Z,61.87
2023-04-02T04:00:47.517Z,61.43
2023-04-02T04:03:13.845Z,61.85
2023-04-02T04:05:40.152Z,61.76
2023-04-02T04:08:06.419Z,61.43
2023-04-02T04:10:32.700Z,61.41
2023-04-02T04:12:58.963Z,60.91
2023-04-02T04:15:25.222Z,61.19
2023-04-02T04:17:51.650Z,61.50
2023-04-02T04:20:18.086Z,61.65
2023-04-02T04:22:44.353Z,61.20
2023-04-02T04:25:10.670Z,61.74
2023-04-02T04:27:36.928Z,61.88
2023-04-02T04:30:03.204Z,62.09
2023-04-02T04:32:29.541Z,62.16
2023-04-02T04:34:55.839Z,61.81
2023-04-02T04:37:22.091Z,61.25
2023-04-02T04:39:48.442Z,61.46
2023-04-02T04:42:14.717Z,61.80
2023-04-02T04:44:40.993Z,61.68
2023-04-02T04:47:07.280Z,62.09
2023-04-02T04:49:33.557Z,62.23
2023-04-02T04:51:59.802Z,61.89
2023-04-02T04:54:26.063Z,62.00
2023-04-02T04:56:52.379Z,62.73
2023-04-02T04:59:18.658Z,62.48
2023-04-02T05:01:44.983Z,62.41
2023-04-02T05:04:11.300Z,62.86
2023-04-02T05:06:37.602Z,62.88
2023-04-02T05:09:03.893Z,62.99
2023-04-02T05:11:30.178Z,62.99
2023-04-02T05:13:56.440Z,63.21
2023-04-02T05:16:22.813Z,63.45
2023-04-02T05:18:49.114Z,62.63
2023-04-02T05:21:15.388Z,63.32
2023-04-02T05:23:41.681Z,63.39
2023-04-02T05:26:08.074Z,63.22
2023-04-02T05:28:34.327Z,62.77
2023-04-02T05:31:00.602Z,63.28
2023-04-02T05:33:26.864Z,63.50
2023-04-02T05:35:53.193Z,63.02
2023-04-02T05:38:19.467Z,62.84
2023-04-02T05:40:45.731Z,62.99
2023-04-02T05:43:12.008Z,62.83
2023-04-02T05:45:38.337Z,63.05
2023-04-02T05:48:04.757Z,63.13
2023-04-02T05:50:31.054Z,63.01
2023-04-02T05:52:57.297Z,62.72
2023-04-02T05:55:23.568Z,62.87
2023-04-02T05:58:07.062Z,62.71
2023-04-02T06:00:36.802Z,63.09
2023-04-02T06:03:03.211Z,63.17
2023-04-02T06:05:29.596Z,63.84
2023-04-02T06:07:55.859Z,63.27
2023-04-02T06:10:24.108Z,63.61
2023-04-02T06:12:50.987Z,62.93
2023-04-02T06:15:17.254Z,63.27
2023-04-02T06:17:43.530Z,63.54
2023-04-02T06:20:09.809Z,62.80
2023-04-02T06:22:36.071Z,63.30
2023-04-02T06:25:02.356Z,63.06
2023-04-02T06:27:28.624Z,63.69
2023-04-02T06:29:54.895Z,63.37
2023-04-02T06:32:21.166Z,63.82
2023-04-02T06:34:47.471Z,63.35
2023-04-02T06:37:13.740Z,63.82
2023-04-02T06:39:40.006Z,63.14
2023-04-02T06:42:06.279Z,63.84
2023-04-02T06:44:32.554Z,63.91
2023-04-02T06:46:58.841Z,63.45
2023-04-02T06:49:25.123Z,63.85
2023-04-02T06:51:51.438Z,63.85
2023-04-02T06:54:17.720Z,63.24
2023-04-02T06:56:44.004Z,63.56
2023-04-02T06:59:10.274Z,64.05
2023-04-02T07:01:36.572Z,62.68
2023-04-02T07:04:02.846Z,63.44
2023-04-02T07:06:29.134Z,62.96
2023-04-02T07:08:55.416Z,62.88
2023-04-02T07:11:21.657Z,63.42
2023-04-02T07:13:47.925Z,63.15
2023-04-02T07:16:14.244Z,63.32
2023-04-02T07:18:40.562Z,62.79
2023-04-02T07:21:06.854Z,63.45
2023-04-02T07:23:33.098Z,63.24
2023-04-02T07:25:59.375Z,63.38
2023-04-02T07:28:25.706Z,63.31
2023-04-02T07:30:52.117Z,64.01
2023-04-02T07:33:18.398Z,64.55
2023-04-02T07:35:44.672Z,63.83
2023-04-02T07:38:10.960Z,63.90
2023-04-02T07:40:37.231Z,64.15
2023-04-02T07:43:03.487Z,63.89
2023-04-02T07:45:29.751Z,64.22
2023-04-02T07:47:56.063Z,63.16
2023-04-02T07:50:22.432Z,63.74
2023-04-02T07:52:48.715Z,63.51
2023-04-02T07:55:15.000Z,63.73
2023-04-02T07:57:41.270Z,63.27
2023-04-02T08:00:07.546Z,63.02
2023-04-02T08:02:33.952Z,63.01
2023-04-02T08:05:00.347Z,62.86
2023-04-02T08:07:26.612Z,63.30
2023-04-02T08:09:52.886Z,62.99
2023-04-02T08:12:19.253Z,63.41
2023-04-02T08:14:45.505Z,63.26
2023-04-02T08:17:11.800Z,62.70
2023-04-02T08:19:51.719Z,63.09
2023-04-02T08:22:20.823Z,63.29
2023-04-02T08:24:47.104Z,62.36
2023-04-02T08:27:13.368Z,62.24
2023-04-02T08:29:39.660Z,62.83
2023-04-02T08:32:05.972Z,62.18
2023-04-02T08:34:32.236Z,61.68
2023-04-02T08:36:58.505Z,61.89
2023-04-02T08:39:24.765Z,62.32
2023-04-02T08:41:51.130Z,61.78
2023-04-02T08:44:17.442Z,62.92
2023-04-02T08:46:43.733Z,61.39
2023-04-02T08:49:10.067Z,61.53
2023-04-02T08:51:36.400Z,61.91
2023-04-02T08:54:02.666Z,61.39
2023-04-02T08:56:28.943Z,61.65
2023-04-02T08:58:56.261Z,61.80
2023-04-02T09:01:22.528Z,61.62
2023-04-02T09:03:48.822Z,61.09
2023-04-02T09:06:16.588Z,61.02
2023-04-02T09:08:43.024Z,61.79
2023-04-02T09:11:09.283Z,61.14
2023-04-02T09:13:35.538Z,60.97
2023-04-02T09:16:01.837Z,61.26
2023-04-02T09:18:28.137Z,61.13
2023-04-02T09:20:54.436Z,60.56
2023-04-02T09:23:20.717Z,60.67
2023-04-02T09:25:57.317Z,59.88
2023-04-02T09:28:23.907Z,60.49
2023-04-02T09:30:50.179Z,60.64
2023-04-02T09:33:16.441Z,59.97
2023-04-02T09:35:42.850Z,60.02
2023-04-02T09:38:09.257Z,60.76
2023-04-02T09:40:35.532Z,59.54
2023-04-02T09:43:01.792Z,60.07
2023-04-02T09:45:28.092Z,59.97
2023-04-02T09:47:54.350Z,61.07
2023-04-02T09:50:20.646Z,60.08
2023-04-02T09:52:46.919Z,60.18
2023-04-02T09:55:13.259Z,59.37
2023-04-02T09:57:39.517Z,60.34
2023-04-02T10:00:05.775Z,59.69
2023-04-02T10:02:32.076Z,60.29
2023-04-02T10:04:58.510Z,60.46
2023-04-02T10:07:24.797Z,60.31
2023-04-02T10:09:51.096Z,60.72
2023-04-02T10:12:17.370Z,60.20
2023-04-02T10:14:43.640Z,60.39
2023-04-02T10:17:09.909Z,60.78
2023-04-02T10:19:36.170Z,60.45
2023-04-02T10:22:02.442Z,60.24
2023-04-02T10:24:28.743Z,59.64
2023-04-02T10:26:55.008Z,60.98
2023-04-02T10:29:21.282Z,61.06
2023-04-02T10:31:47.572Z,60.96
2023-04-02T10:34:13.857Z,60.48
2023-04-02T10:36:40.131Z,60.98
2023-04-02T10:39:06.440Z,62.16
2023-04-02T10:41:32.787Z,60.40
2023-04-02T10:44:06.123Z,60.88
2023-04-02T10:46:39.391Z,60.98
2023-04-02T10:49:05.875Z,61.36
2023-04-02T10:51:32.153Z,60.29
2023-04-02T10:53:58.433Z,61.24
2023-04-02T10:56:24.749Z,61.17
2023-04-02T10:58:51.048Z,60.98
2023-04-02T11:01:17.403Z,61.78
2023-04-02T11:03:43.886Z,61.23
2023-04-02T11:06:11.937Z,61.45
2023-04-02T11:08:38.360Z,60.77
2023-04-02T11:11:04.814Z,60.69
2023-04-02T11:13:31.194Z,60.84
2023-04-02T11:15:57.502Z,61.20
2023-04-02T11:18:23.782Z,60.83
2023-04-02T11:20:50.151Z,60.58
2023-04-02T11:23:16.389Z,60.35
2023-04-02T11:25:42.731Z,59.86
2023-04-02T11:28:08.997Z,59.91
2023-04-02T11:30:35.258Z,60.62
2023-04-02T11:33:01.594Z,60.51
2023-04-02T11:35:27.891Z,60.93
2023-04-02T11:37:54.188Z,60.40
2023-04-02T11:40:20.467Z,60.78
2023-04-02T11:42:46.730Z,60.49
2023-04-02T11:45:13.026Z,60.98
2023-04-02T11:47:39.347Z,60.67
2023-04-02T11:50:05.769Z,61.03
2023-04-02T11:52:32.115Z,61.24
2023-04-02T11:54:58.374Z,61.14
2023-04-02T11:57:24.752Z,61.29
2023-04-02T11:59:51.032Z,60.90
2023-04-02T12:02:17.433Z,61.28
2023-04-02T12:04:43.748Z,61.58
2023-04-02T12:07:10.065Z,61.23
2023-04-02T12:09:36.327Z,61.91
2023-04-02T12:12:02.586Z,62.53
2023-04-02T12:14:28.856Z,62.55
2023-04-02T12:16:55.184Z,61.58
2023-04-02T12:19:21.444Z,62.08
2023-04-02T12:21:47.703Z,62.22
2023-04-02T12:24:13.971Z,62.05
2023-04-02T12:26:40.293Z,62.91
2023-04-02T12:29:06.572Z,62.68
2023-04-02T12:31:32.908Z,61.67
2023-04-02T12:33:59.200Z,62.48
2023-04-02T12:36:25.555Z,62.40
2023-04-02T12:38:51.879Z,62.45
2023-04-02T12:41:18.142Z,62.07
2023-04-02T12:43:44.418Z,61.89
2023-04-02T12:46:10.741Z,61.98
2023-04-02T12:48:37.047Z,61.33
2023-04-02T12:51:03.341Z,61.56
2023-04-02T12:53:29.690Z,62.34
2023-04-02T12:55:55.965Z,63.01
2023-04-02T12:58:22.234Z,61.02
2023-04-02T13:00:48.490Z,61.37
2023-04-02T13:03:14.874Z,62.42
2023-04-02T13:05:41.228Z,61.00
2023-04-02T13:08:07.537Z,62.53
2023-04-02T13:10:33.855Z,61.99
2023-04-02T13:13:00.148Z,62.21
2023-04-02T13:15:27.239Z,61.56
2023-04-02T13:17:54.605Z,60.88
2023-04-02T13:20:20.891Z,61.24
2023-04-02T13:22:47.229Z,61.95
2023-04-02T13:25:13.524Z,61.84
2023-04-02T13:27:39.827Z,61.33
2023-04-02T13:30:06.066Z,60.40
2023-04-02T13:32:32.359Z,59.59
2023-04-02T13:34:58.650Z,58.06
2023-04-02T13:37:24.978Z,57.82
2023-04-02T13:39:51.316Z,59.08
2023-04-02T13:42:17.585Z,58.87
2023-04-02T13:44:43.857Z,59.27
2023-04-02T13:47:10.166Z,58.17
2023-04-02T13:49:36.429Z,57.69
2023-04-02T13:52:02.714Z,57.28
2023-04-02T13:54:28.976Z,57.97
2023-04-02T13:56:55.315Z,57.73
2023-04-02T13:59:21.610Z,57.33
2023-04-02T14:01:47.913Z,57.50
2023-04-02T14:04:14.202Z,57.79
2023-04-02T14:06:40.529Z,58.23
2023-04-02T14:09:06.816Z,57.92
2023-04-02T14:11:33.085Z,58.34
2023-04-02T14:13:59.352Z,57.60
2023-04-02T14:16:25.646Z,56.91
2023-04-02T14:18:51.926Z,55.81
2023-04-02T14:21:18.240Z,56.11
2023-04-02T14:23:44.533Z,56.85
2023-04-02T14:26:10.897Z,56.70
2023-04-02T14:28:37.217Z,56.99
2023-04-02T14:31:03.529Z,56.43
2023-04-02T14:33:29.834Z,56.77
2023-04-02T14:35:56.126Z,57.03
2023-04-02T14:38:22.401Z,57.08
2023-04-02T14:40:48.702Z,56.55
2023-04-02T14:43:14.973Z,56.34
2023-04-02T14:45:41.255Z,55.75
2023-04-02T14:48:07.536Z,54.98
2023-04-02T14:50:33.985Z,56.58
2023-04-02T14:53:00.374Z,55.86
2023-04-02T14:55:26.636Z,55.91
2023-04-02T14:57:52.908Z,55.76
2023-04-02T15:00:19.181Z,56.09
2023-04-02T15:02:45.475Z,55.85
2023-04-02T15:05:11.846Z,57.05
2023-04-02T15:07:38.119Z,56.46
2023-04-02T15:10:04.364Z,56.59
2023-04-02T15:12:30.632Z,55.90
2023-04-02T15:14:56.900Z,55.33
2023-04-02T15:17:23.204Z,56.08
2023-04-02T15:19:49.491Z,56.75
2023-04-02T15:22:15.748Z,57.51
2023-04-02T15:24:42.043Z,58.63
2023-04-02T15:27:12.061Z,58.63
2023-04-02T15:29:44.490Z,58.91
2023-04-02T15:32:10.826Z,58.78
2023-04-02T15:34:37.062Z,58.73
2023-04-02T15:37:03.303Z,58.89
2023-04-02T15:39:29.628Z,58.58
2023-04-02T15:41:55.903Z,59.15
2023-04-02T15:44:22.208Z,58.87
2023-04-02T15:46:48.488Z,58.29
2023-04-02T15:49:14.762Z,58.52
2023-04-02T15:51:41.062Z,58.17
2023-04-02T15:54:07.356Z,57.03
2023-04-02T15:56:33.617Z,57.12
2023-04-02T15:58:59.898Z,58.56
2023-04-02T16:01:26.190Z,59.60
2023-04-02T16:03:52.572Z,59.38
2023-04-02T16:06:18.846Z,59.17
2023-04-02T16:08:45.150Z,59.74
2023-04-02T16:11:14.449Z,59.88
2023-04-02T16:13:40.721Z,59.63
2023-04-02T16:16:07.044Z,59.29
2023-04-02T16:18:33.358Z,59.67
2023-04-02T16:20:59.638Z,59.63
2023-04-02T16:23:25.936Z,59.91
2023-04-02T16:25:52.204Z,59.93
2023-04-02T16:28:18.474Z,59.64
2023-04-02T16:30:44.839Z,60.21
2023-04-02T16:33:11.143Z,59.83
2023-04-02T16:35:43.175Z,59.73
2023-04-02T16:38:09.938Z,60.05
2023-04-02T16:40:36.469Z,60.29
2023-04-02T16:43:03.233Z,60.27
2023-04-02T16:45:29.841Z,59.80
2023-04-02T16:47:56.193Z,59.96
2023-04-02T16:50:22.531Z,60.29
2023-04-02T16:52:48.878Z,60.50
2023-04-02T16:55:15.219Z,61.08
2023-04-02T16:57:41.593Z,61.02
2023-04-02T17:00:07.876Z,60.76
2023-04-02T17:02:34.200Z,61.11
2023-04-02T17:05:00.525Z,61.03
2023-04-02T17:07:26.818Z,60.72
2023-04-02T17:09:53.197Z,60.59
2023-04-02T17:12:19.520Z,60.04
2023-04-02T17:14:45.797Z,59.80
2023-04-02T17:17:12.056Z,59.14
2023-04-02T17:19:38.309Z,59.11
2023-04-02T17:22:04.661Z,59.44
2023-04-02T17:24:30.919Z,59.24
2023-04-02T17:26:57.193Z,58.46
2023-04-02T17:29:23.496Z,58.65
2023-04-02T17:31:49.847Z,58.17
2023-04-02T17:34:16.125Z,58.65
2023-04-02T17:36:42.496Z,58.11
2023-04-02T17:39:08.735Z,58.63
2023-04-02T17:41:34.991Z,58.41
2023-04-02T17:44:01.296Z,58.24
2023-04-02T17:46:27.675Z,58.50
2023-04-02T17:48:53.953Z,58.56
2023-04-02T17:51:20.215Z,58.66
2023-04-02T17:53:46.460Z,58.48
2023-04-02T17:56:12.710Z,58.42
2023-04-02T17:58:38.999Z,58.75
2023-04-02T18:01:05.270Z,58.52
2023-04-02T18:03:31.567Z,58.61
2023-04-02T18:05:57.832Z,58.75
2023-04-02T18:08:24.128Z,58.34
2023-04-02T18:10:50.404Z,59.02
2023-04-02T18:13:16.659Z,59.16
2023-04-02T18:15:42.942Z,58.72
2023-04-02T18:18:09.211Z,58.87
2023-04-02T18:20:35.603Z,59.15
2023-04-02T18:23:02.054Z,59.02
2023-04-02T18:25:28.311Z,59.26
2023-04-02T18:27:54.567Z,58.92
2023-04-02T18:30:20.900Z,59.43
2023-04-02T18:32:47.195Z,59.21
2023-04-02T18:35:13.460Z,59.55
2023-04-02T18:37:39.753Z,59.34
2023-04-02T18:40:06.019Z,59.37
2023-04-02T18:42:32.349Z,59.45
2023-04-02T18:44:58.601Z,59.62
2023-04-02T18:47:24.926Z,59.62
2023-04-02T18:49:51.212Z,59.93
2023-04-02T18:52:17.653Z,59.91
2023-04-02T18:54:45.405Z,59.85
2023-04-02T18:57:11.728Z,60.23
2023-04-02T18:59:38.113Z,60.18
2023-04-02T19:02:04.465Z,60.16
2023-04-02T19:04:30.804Z,60.30
2023-04-02T19:06:57.103Z,60.32
2023-04-02T19:09:23.401Z,60.47
2023-04-02T19:11:49.666Z,61.11
2023-04-02T19:14:15.954Z,60.40
2023-04-02T19:16:42.282Z,60.35
2023-04-02T19:19:08.532Z,60.87
2023-04-02T19:21:34.803Z,60.92
2023-04-02T19:24:01.152Z,61.22
2023-04-02T19:26:27.417Z,61.00
2023-04-02T19:28:53.669Z,61.50
2023-04-02T19:31:19.988Z,61.45
2023-04-02T19:33:46.271Z,61.55
2023-04-02T19:36:12.588Z,62.04
2023-04-02T19:38:38.978Z,62.50
2023-04-02T19:41:05.233Z,62.20
2023-04-02T19:43:31.533Z,62.75
2023-04-02T19:45:57.787Z,62.51
2023-04-02T19:48:24.073Z,62.68
2023-04-02T19:50:50.345Z,63.14
2023-04-02T19:53:16.614Z,63.16
2023-04-02T19:55:42.888Z,62.80
2023-04-02T19:58:19.318Z,62.83
2023-04-02T20:00:46.279Z,63.07
2023-04-02T20:03:12.638Z,63.37
2023-04-02T20:05:39.198Z,62.63
2023-04-02T20:08:05.619Z,63.37
2023-04-02T20:10:32.024Z,63.04
2023-04-02T20:12:58.277Z,63.49
2023-04-02T20:15:24.608Z,63.20
2023-04-02T20:17:50.970Z,63.14
2023-04-02T20:20:17.224Z,63.60
2023-04-02T20:22:43.506Z,63.47
2023-04-02T20:25:09.765Z,63.76
2023-04-02T20:27:36.060Z,63.34
2023-04-02T20:30:02.346Z,63.51
2023-04-02T20:32:28.687Z,64.18
2023-04-02T20:34:55.073Z,63.91
2023-04-02T20:37:21.327Z,63.90
2023-04-02T20:39:47.661Z,64.09
2023-04-02T20:42:14.044Z,63.66
2023-04-02T20:44:40.319Z,63.95
2023-04-02T20:47:06.593Z,63.81
2023-04-02T20:49:32.851Z,64.00
2023-04-02T20:51:59.109Z,63.81
2023-04-02T20:54:25.388Z,63.88
2023-04-02T20:56:51.646Z,63.76
2023-04-02T20:59:17.986Z,63.92
2023-04-02T21:01:44.326Z,63.61
2023-04-02T21:04:10.623Z,63.41
2023-04-02T21:06:36.901Z,62.99
2023-04-02T21:09:03.206Z,63.00
2023-04-02T21:11:29.513Z,63.09
2023-04-02T21:13:55.779Z,62.98
2023-04-02T21:16:22.089Z,63.83
2023-04-02T21:18:48.416Z,63.52
2023-04-02T21:21:14.728Z,63.28
2023-04-02T21:23:40.978Z,63.88
2023-04-02T21:26:07.265Z,63.31
2023-04-02T21:28:33.521Z,63.54
2023-04-02T21:30:59.803Z,63.53
2023-04-02T21:33:26.064Z,62.96
2023-04-02T21:35:52.402Z,62.86
2023-04-02T21:38:18.725Z,63.06
2023-04-02T21:40:45.022Z,63.08
2023-04-02T21:43:11.276Z,62.70
2023-04-02T21:45:37.641Z,62.73
2023-04-02T21:48:04.057Z,62.92
2023-04-02T21:50:30.377Z,62.80
2023-04-02T21:52:56.640Z,62.96
2023-04-02T21:55:22.927Z,63.00
2023-04-02T21:57:49.195Z,62.27
2023-04-02T22:00:15.465Z,62.49
2023-04-02T22:02:41.826Z,62.10
2023-04-02T22:05:08.160Z,62.45
2023-04-02T22:07:34.410Z,62.51
2023-04-02T22:10:00.687Z,62.67
2023-04-02T22:12:26.989Z,62.51
2023-04-02T22:14:53.279Z,62.78
2023-04-02T22:17:19.559Z,62.68
2023-04-02T22:19:45.852Z,62.67
2023-04-02T22:22:12.214Z,62.51
2023-04-02T22:24:38.541Z,62.22
2023-04-02T22:27:04.820Z,62.54
2023-04-02T22:29:31.102Z,62.09
2023-04-02T22:31:57.408Z,62.57
2023-04-02T22:34:23.668Z,61.95
2023-04-02T22:36:49.923Z,62.20
2023-04-02T22:39:16.195Z,62.16
2023-04-02T22:41:42.462Z,61.79
2023-04-02T22:44:08.760Z,61.53
2023-04-02T22:46:35.238Z,61.79
2023-04-02T22:49:01.812Z,61.61
2023-04-02T22:51:28.162Z,61.59
2023-04-02T22:53:54.448Z,61.49
2023-04-02T22:56:20.702Z,61.90
2023-04-02T22:58:47.025Z,62.04
2023-04-02T23:01:13.356Z,62.28
2023-04-02T23:03:39.662Z,61.81
2023-04-02T23:06:05.978Z,62.38
2023-04-02T23:08:32.238Z,62.61
2023-04-02T23:10:58.490Z,62.29
2023-04-02T23:13:24.783Z,62.18
2023-04-02T23:15:51.088Z,62.47
2023-04-02T23:18:17.378Z,62.55
2023-04-02T23:20:43.656Z,62.58
2023-04-02T23:23:09.946Z,62.17
2023-04-02T23:25:36.245Z,61.87
2023-04-02T23:28:02.591Z,62.19
2023-04-02T23:30:28.860Z,62.42
2023-04-02T23:32:55.124Z,61.80
2023-04-02T23:35:21.387Z,62.46
2023-04-02T23:37:47.698Z,62.41
2023-04-02T23:40:14.136Z,62.29
2023-04-02T23:42:40.466Z,62.83
2023-04-02T23:45:06.707Z,62.87
2023-04-02T23:47:32.991Z,62.67
2023-04-02T23:49:59.270Z,62.89
2023-04-02T23:52:25.521Z,62.63
2023-04-02T23:54:51.794Z,63.22
2023-04-02T23:57:18.141Z,62.62
2023-04-02T23:59:44.438Z,62.60
